createdAt,value
2022-09-11T00:01:18.341Z,16.05
2022-09-11T00:03:48.458Z,16.10
2022-09-11T00:06:28.856Z,16.11
2022-09-11T00:09:00.978Z,16.12
2022-09-11T00:11:31.545Z,16.10
2022-09-11T00:14:00.253Z,16.10
2022-09-11T00:16:30.601Z,16.05
2022-09-11T00:19:00.524Z,16.06
2022-09-11T00:21:29.458Z,16.06
2022-09-11T00:23:59.778Z,16.09
2022-09-11T00:26:28.648Z,16.05
2022-09-11T00:28:57.276Z,16.09
2022-09-11T00:31:27.989Z,16.14
2022-09-11T00:33:56.433Z,16.06
2022-09-11T00:36:26.375Z,16.14
2022-09-11T00:38:54.931Z,16.10
2022-09-11T00:41:27.439Z,16.08
2022-09-11T00:44:02.300Z,16.10
2022-09-11T00:46:38.314Z,16.03
2022-09-11T00:49:17.266Z,16.17
2022-09-11T00:51:49.326Z,16.12
2022-09-11T00:54:24.320Z,16.14
2022-09-11T00:56:54.482Z,16.20
2022-09-11T00:59:27.205Z,16.13
2022-09-11T01:01:55.649Z,16.20
2022-09-11T01:04:24.413Z,16.21
2022-09-11T01:06:56.481Z,16.16
2022-09-11T01:09:24.853Z,16.20
2022-09-11T01:12:00.917Z,16.24
2022-09-11T01:14:41.757Z,16.11
2022-09-11T01:17:22.577Z,16.12
2022-09-11T01:20:22.470Z,16.12
2022-09-11T01:23:04.890Z,16.14
2022-09-11T01:25:50.081Z,16.13
2022-09-11T01:28:23.078Z,16.13
2022-09-11T01:30:59.199Z,16.13
2022-09-11T01:33:32.945Z,16.13
2022-09-11T01:36:07.341Z,16.14
2022-09-11T01:38:40.040Z,16.20
2022-09-11T01:41:14.311Z,16.17
2022-09-11T01:43:51.364Z,16.18
2022-09-11T01:46:23.997Z,16.22
2022-09-11T01:49:02.978Z,16.21
2022-09-11T01:51:33.746Z,16.23
2022-09-11T01:54:05.119Z,16.29
2022-09-11T01:56:37.238Z,16.23
2022-09-11T01:59:10.303Z,16.16
2022-09-11T02:01:42.836Z,16.13
2022-09-11T02:04:15.164Z,16.20
2022-09-11T02:06:47.728Z,16.23
2022-09-11T02:09:22.818Z,16.27
2022-09-11T02:11:55.089Z,16.22
2022-09-11T02:14:30.338Z,16.20
2022-09-11T02:17:05.107Z,16.25
2022-09-11T02:19:33.232Z,16.13
2022-09-11T02:22:01.202Z,16.12
2022-09-11T02:24:29.581Z,16.08
2022-09-11T02:27:03.874Z,16.02
2022-09-11T02:29:35.195Z,16.00
2022-09-11T02:32:05.202Z,16.05
2022-09-11T02:34:35.386Z,16.07
2022-09-11T02:37:16.955Z,16.07
2022-09-11T02:40:17.349Z,16.14
2022-09-11T02:43:00.350Z,16.15
2022-09-11T02:45:41.801Z,16.15
2022-09-11T02:48:26.200Z,16.19
2022-09-11T02:51:02.210Z,16.13
2022-09-11T02:53:36.656Z,16.15
2022-09-11T02:56:10.032Z,16.10
2022-09-11T02:58:44.542Z,16.12
2022-09-11T03:01:13.975Z,16.11
2022-09-11T03:03:46.036Z,16.08
2022-09-11T03:06:18.077Z,16.04
2022-09-11T03:08:47.196Z,16.03
2022-09-11T03:11:17.611Z,16.03
2022-09-11T03:13:47.677Z,16.07
2022-09-11T03:16:19.121Z,16.02
2022-09-11T03:18:47.306Z,16.05
2022-09-11T03:21:16.900Z,16.04
2022-09-11T03:23:44.925Z,16.09
2022-09-11T03:26:12.775Z,15.99
2022-09-11T03:28:40.957Z,16.00
2022-09-11T03:31:10.048Z,16.06
2022-09-11T03:33:40.081Z,16.25
2022-09-11T03:36:11.219Z,16.15
2022-09-11T03:38:39.405Z,16.30
2022-09-11T03:41:09.233Z,16.22
2022-09-11T03:43:37.689Z,16.16
2022-09-11T03:46:06.944Z,16.21
2022-09-11T03:48:37.935Z,16.20
2022-09-11T03:51:07.441Z,16.15
2022-09-11T03:53:35.503Z,16.18
2022-09-11T03:56:06.442Z,16.21
2022-09-11T03:58:40.786Z,16.17
2022-09-11T04:01:10.782Z,16.19
2022-09-11T04:03:38.795Z,16.23
2022-09-11T04:06:10.053Z,16.22
2022-09-11T04:08:41.246Z,16.11
2022-09-11T04:11:12.531Z,16.05
2022-09-11T04:13:43.770Z,16.12
2022-09-11T04:16:16.906Z,16.14
2022-09-11T04:18:48.893Z,16.07
2022-09-11T04:21:19.353Z,16.02
2022-09-11T04:23:54.330Z,15.98
2022-09-11T04:26:24.822Z,15.98
2022-09-11T04:28:57.175Z,15.91
2022-09-11T04:31:26.363Z,15.96
2022-09-11T04:33:57.895Z,15.96
2022-09-11T04:36:30.797Z,15.97
2022-09-11T04:39:00.494Z,15.86
2022-09-11T04:41:29.737Z,15.79
2022-09-11T04:44:05.203Z,15.82
2022-09-11T04:46:37.105Z,15.78
2022-09-11T04:49:10.761Z,15.77
2022-09-11T04:51:41.650Z,15.76
2022-09-11T04:54:15.191Z,15.76
2022-09-11T04:56:43.106Z,15.70
2022-09-11T04:59:15.847Z,15.72
2022-09-11T05:01:48.873Z,15.67
2022-09-11T05:04:21.786Z,15.63
2022-09-11T05:06:53.663Z,15.58
2022-09-11T05:09:21.851Z,15.56
2022-09-11T05:11:50.822Z,15.56
2022-09-11T05:14:19.202Z,15.57
2022-09-11T05:16:50.117Z,15.57
2022-09-11T05:19:20.452Z,15.56
2022-09-11T05:21:48.557Z,15.58
2022-09-11T05:24:19.020Z,15.56
2022-09-11T05:26:47.944Z,15.61
2022-09-11T05:29:17.342Z,15.64
2022-09-11T05:31:53.248Z,15.70
2022-09-11T05:34:22.214Z,15.77
2022-09-11T05:36:52.253Z,15.79
2022-09-11T05:39:22.050Z,15.82
2022-09-11T05:41:52.139Z,15.86
2022-09-11T05:44:20.820Z,15.93
2022-09-11T05:46:49.537Z,15.91
2022-09-11T05:49:17.603Z,15.95
2022-09-11T05:51:45.982Z,15.97
2022-09-11T05:54:13.821Z,16.03
2022-09-11T05:56:43.399Z,16.10
2022-09-11T05:59:18.291Z,16.05
2022-09-11T06:01:50.318Z,16.05
2022-09-11T06:04:28.066Z,16.08
2022-09-11T06:06:58.411Z,16.08
2022-09-11T06:09:28.092Z,16.16
2022-09-11T06:11:57.398Z,16.20
2022-09-11T06:14:25.482Z,16.25
2022-09-11T06:16:56.975Z,16.30
2022-09-11T06:19:26.421Z,16.36
2022-09-11T06:21:54.421Z,16.36
2022-09-11T06:24:29.466Z,16.35
2022-09-11T06:27:00.789Z,16.41
2022-09-11T06:29:32.529Z,16.46
2022-09-11T06:32:01.797Z,16.56
2022-09-11T06:34:31.860Z,16.80
2022-09-11T06:37:03.667Z,16.92
2022-09-11T06:39:34.214Z,17.05
2022-09-11T06:42:03.459Z,17.17
2022-09-11T06:44:36.330Z,17.28
2022-09-11T06:47:05.608Z,17.51
2022-09-11T06:49:35.776Z,17.60
2022-09-11T06:52:28.082Z,17.69
2022-09-11T06:55:13.374Z,17.69
2022-09-11T06:57:47.121Z,17.80
2022-09-11T07:00:19.139Z,17.92
2022-09-11T07:02:48.222Z,17.94
2022-09-11T07:05:16.303Z,17.93
2022-09-11T07:07:48.507Z,17.89
2022-09-11T07:10:17.552Z,17.94
2022-09-11T07:12:54.314Z,17.99
2022-09-11T07:15:22.920Z,18.03
2022-09-11T07:17:51.326Z,18.12
2022-09-11T07:20:20.990Z,18.35
2022-09-11T07:22:48.879Z,18.50
2022-09-11T07:25:18.368Z,18.57
2022-09-11T07:27:47.701Z,18.78
2022-09-11T07:30:18.343Z,18.82
2022-09-11T07:32:50.234Z,19.02
2022-09-11T07:35:21.716Z,19.07
2022-09-11T07:37:52.838Z,18.98
2022-09-11T07:40:25.505Z,18.89
2022-09-11T07:42:54.470Z,18.91
2022-09-11T07:45:24.451Z,19.03
2022-09-11T07:47:53.857Z,18.84
2022-09-11T07:50:24.276Z,18.89
2022-09-11T07:52:52.452Z,18.78
2022-09-11T07:55:21.447Z,18.76
2022-09-11T07:57:52.200Z,18.68
2022-09-11T08:00:21.368Z,18.80
2022-09-11T08:02:50.651Z,18.69
2022-09-11T08:05:28.862Z,18.72
2022-09-11T08:08:00.145Z,18.67
2022-09-11T08:10:30.604Z,18.83
2022-09-11T08:13:00.244Z,18.76
2022-09-11T08:15:33.335Z,18.97
2022-09-11T08:18:04.538Z,19.03
2022-09-11T08:20:33.397Z,19.14
2022-09-11T08:23:01.996Z,19.48
2022-09-11T08:25:31.223Z,19.25
2022-09-11T08:28:01.974Z,19.24
2022-09-11T08:30:30.045Z,19.13
2022-09-11T08:32:58.508Z,19.05
2022-09-11T08:35:29.165Z,18.97
2022-09-11T08:37:57.082Z,19.10
2022-09-11T08:40:26.309Z,19.18
2022-09-11T08:43:02.344Z,19.35
2022-09-11T08:45:36.147Z,19.44
2022-09-11T08:48:09.243Z,19.42
2022-09-11T08:50:42.153Z,19.54
2022-09-11T08:53:16.258Z,19.71
2022-09-11T08:55:48.750Z,19.67
2022-09-11T08:58:29.052Z,19.33
2022-09-11T09:01:09.507Z,19.16
2022-09-11T09:04:00.971Z,19.10
2022-09-11T09:06:47.269Z,19.20
2022-09-11T09:09:26.047Z,19.10
2022-09-11T09:12:05.120Z,19.06
2022-09-11T09:14:52.936Z,19.34
2022-09-11T09:17:25.850Z,19.48
2022-09-11T09:20:05.701Z,19.48
2022-09-11T09:22:44.745Z,19.45
2022-09-11T09:25:15.478Z,19.65
2022-09-11T09:27:48.465Z,19.75
2022-09-11T09:30:18.644Z,19.64
2022-09-11T09:32:53.107Z,19.72
2022-09-11T09:35:27.120Z,20.21
2022-09-11T09:37:57.125Z,20.57
2022-09-11T09:40:27.123Z,20.61
2022-09-11T09:43:19.338Z,20.40
2022-09-11T09:46:00.263Z,20.00
2022-09-11T09:48:32.438Z,19.69
2022-09-11T09:51:02.233Z,19.33
2022-09-11T09:53:40.779Z,19.12
2022-09-11T09:56:11.565Z,18.90
2022-09-11T09:58:49.246Z,19.00
2022-09-11T10:01:45.829Z,19.29
2022-09-11T10:04:17.495Z,19.82
2022-09-11T10:06:47.724Z,20.24
2022-09-11T10:09:28.648Z,20.28
2022-09-11T10:12:01.834Z,20.55
2022-09-11T10:14:53.062Z,20.29
2022-09-11T10:17:25.329Z,20.25
2022-09-11T10:19:56.953Z,20.76
2022-09-11T10:22:29.062Z,21.01
2022-09-11T10:25:12.782Z,21.12
2022-09-11T10:27:47.042Z,20.59
2022-09-11T10:30:31.466Z,20.32
2022-09-11T10:33:03.735Z,20.18
2022-09-11T10:35:35.528Z,20.27
2022-09-11T10:38:19.276Z,20.25
2022-09-11T10:41:10.500Z,20.45
2022-09-11T10:43:47.578Z,20.58
2022-09-11T10:46:28.793Z,20.67
2022-09-11T10:48:58.808Z,20.83
2022-09-11T10:51:29.884Z,20.90
2022-09-11T10:54:21.534Z,21.23
2022-09-11T10:57:05.376Z,21.47
2022-09-11T10:59:45.809Z,21.53
2022-09-11T11:02:21.631Z,21.51
2022-09-11T11:04:49.924Z,21.65
2022-09-11T11:07:36.239Z,21.72
2022-09-11T11:10:21.643Z,21.59
2022-09-11T11:13:05.147Z,20.84
2022-09-11T11:15:46.093Z,20.61
2022-09-11T11:18:35.106Z,21.16
2022-09-11T11:21:15.110Z,21.62
2022-09-11T11:24:01.292Z,21.44
2022-09-11T11:26:53.529Z,21.17
2022-09-11T11:29:56.204Z,20.90
2022-09-11T11:32:44.197Z,20.60
2022-09-11T11:35:21.865Z,20.66
2022-09-11T11:37:53.996Z,21.30
2022-09-11T11:40:29.914Z,21.48
2022-09-11T11:43:02.158Z,21.81
2022-09-11T11:45:38.150Z,22.21
2022-09-11T11:48:13.465Z,22.56
2022-09-11T11:50:45.075Z,22.66
2022-09-11T11:53:21.276Z,22.72
2022-09-11T11:56:03.792Z,23.06
2022-09-11T11:58:47.045Z,23.51
2022-09-11T12:01:23.214Z,23.62
2022-09-11T12:03:56.555Z,23.80
2022-09-11T12:06:24.441Z,23.82
2022-09-11T12:08:52.710Z,24.27
2022-09-11T12:11:29.792Z,24.44
2022-09-11T12:13:59.549Z,24.87
2022-09-11T12:16:32.239Z,25.10
2022-09-11T12:19:19.659Z,24.95
2022-09-11T12:22:12.268Z,24.73
2022-09-11T12:24:58.814Z,23.85
2022-09-11T12:28:09.434Z,23.82
2022-09-11T12:30:56.644Z,23.55
2022-09-11T12:33:56.981Z,23.61
2022-09-11T12:36:51.109Z,22.88
2022-09-11T12:39:27.535Z,22.01
2022-09-11T12:42:34.641Z,21.66
2022-09-11T12:45:04.188Z,21.46
2022-09-11T12:47:36.370Z,21.42
2022-09-11T12:50:18.422Z,21.48
2022-09-11T12:52:51.926Z,21.44
2022-09-11T12:55:33.145Z,21.44
2022-09-11T12:58:06.683Z,21.54
2022-09-11T13:00:38.368Z,21.64
2022-09-11T13:03:14.067Z,21.55
2022-09-11T13:05:45.386Z,21.61
2022-09-11T13:08:18.412Z,21.59
2022-09-11T13:10:47.717Z,21.57
2022-09-11T13:13:43.367Z,21.70
2022-09-11T13:16:24.256Z,21.89
2022-09-11T13:18:53.908Z,21.87
2022-09-11T13:21:26.387Z,22.08
2022-09-11T13:23:55.005Z,22.13
2022-09-11T13:26:30.258Z,22.13
2022-09-11T13:29:00.851Z,21.89
2022-09-11T13:31:35.615Z,21.76
2022-09-11T13:34:07.551Z,21.60
2022-09-11T13:36:37.952Z,21.41
2022-09-11T13:39:07.651Z,21.30
2022-09-11T13:41:39.498Z,21.19
2022-09-11T13:44:12.620Z,21.22
2022-09-11T13:46:56.412Z,21.20
2022-09-11T13:49:36.245Z,21.83
2022-09-11T13:52:07.839Z,21.96
2022-09-11T13:54:38.696Z,21.85
2022-09-11T13:57:16.691Z,21.75
2022-09-11T13:59:56.798Z,21.43
2022-09-11T14:02:49.969Z,21.49
2022-09-11T14:05:21.918Z,21.41
2022-09-11T14:07:59.232Z,21.35
2022-09-11T14:10:31.167Z,21.27
2022-09-11T14:13:10.588Z,21.38
2022-09-11T14:15:42.629Z,21.39
2022-09-11T14:18:20.458Z,21.43
2022-09-11T14:20:48.634Z,21.64
2022-09-11T14:23:24.200Z,22.10
2022-09-11T14:26:19.735Z,22.99
2022-09-11T14:29:05.145Z,23.62
2022-09-11T14:31:38.279Z,24.03
2022-09-11T14:34:15.776Z,23.88
2022-09-11T14:36:46.954Z,23.87
2022-09-11T14:39:24.829Z,24.04
2022-09-11T14:41:55.091Z,24.15
2022-09-11T14:44:26.236Z,23.83
2022-09-11T14:46:57.696Z,23.54
2022-09-11T14:49:25.765Z,23.31
2022-09-11T14:51:58.191Z,22.81
2022-09-11T14:54:31.058Z,22.06
2022-09-11T14:56:59.640Z,21.78
2022-09-11T14:59:29.056Z,21.47
2022-09-11T15:01:58.698Z,21.40
2022-09-11T15:04:27.351Z,21.26
2022-09-11T15:07:00.143Z,21.17
2022-09-11T15:09:31.041Z,21.07
2022-09-11T15:11:59.113Z,20.93
2022-09-11T15:14:54.378Z,20.86
2022-09-11T15:17:17.856Z,20.75
2022-09-11T15:19:47.189Z,20.72
2022-09-11T15:22:15.088Z,20.74
2022-09-11T15:24:44.605Z,20.77
2022-09-11T15:27:12.489Z,20.67
2022-09-11T15:29:42.679Z,20.71
2022-09-11T15:32:11.351Z,20.70
2022-09-11T15:34:40.454Z,20.65
2022-09-11T15:37:08.337Z,20.62
2022-09-11T15:39:36.299Z,20.52
2022-09-11T15:42:07.556Z,20.59
2022-09-11T15:44:37.536Z,20.61
2022-09-11T15:47:09.134Z,20.62
2022-09-11T15:49:41.445Z,20.61
2022-09-11T15:52:09.694Z,20.70
2022-09-11T15:54:38.229Z,20.85
2022-09-11T15:57:07.551Z,21.12
2022-09-11T15:59:35.467Z,21.25
2022-09-11T16:02:03.333Z,21.38
2022-09-11T16:04:32.410Z,21.39
2022-09-11T16:07:00.329Z,21.37
2022-09-11T16:09:31.442Z,21.33
2022-09-11T16:12:01.681Z,21.29
2022-09-11T16:14:34.069Z,21.29
2022-09-11T16:17:03.590Z,21.26
2022-09-11T16:19:32.097Z,21.13
2022-09-11T16:22:02.531Z,21.19
2022-09-11T16:24:32.774Z,21.18
2022-09-11T16:27:01.589Z,21.17
2022-09-11T16:29:56.623Z,21.18
2022-09-11T16:32:28.440Z,21.15
2022-09-11T16:34:57.572Z,21.09
2022-09-11T16:37:26.015Z,21.03
2022-09-11T16:39:54.126Z,21.01
2022-09-11T16:42:22.704Z,20.84
2022-09-11T16:44:53.628Z,20.77
2022-09-11T16:47:22.009Z,20.65
2022-09-11T16:50:06.423Z,20.47
2022-09-11T16:52:35.706Z,20.44
2022-09-11T16:55:04.802Z,20.44
2022-09-11T16:57:33.273Z,20.39
2022-09-11T17:00:03.393Z,20.37
2022-09-11T17:02:31.623Z,20.30
2022-09-11T17:05:00.383Z,20.11
2022-09-11T17:07:28.193Z,19.96
2022-09-11T17:09:56.077Z,19.89
2022-09-11T17:12:24.810Z,19.78
2022-09-11T17:14:52.982Z,19.69
2022-09-11T17:17:26.455Z,19.61
2022-09-11T17:19:57.057Z,19.56
2022-09-11T17:22:25.230Z,19.50
2022-09-11T17:24:53.618Z,19.41
2022-09-11T17:27:21.443Z,19.32
2022-09-11T17:29:49.228Z,19.30
2022-09-11T17:32:29.221Z,19.23
2022-09-11T17:34:59.831Z,19.18
2022-09-11T17:37:28.148Z,19.14
2022-09-11T17:39:56.176Z,19.12
2022-09-11T17:42:24.542Z,19.08
2022-09-11T17:44:52.504Z,19.03
2022-09-11T17:47:20.562Z,18.97
2022-09-11T17:49:49.936Z,18.92
2022-09-11T17:52:20.481Z,18.96
2022-09-11T17:54:49.004Z,18.88
2022-09-11T17:57:17.131Z,18.78
2022-09-11T17:59:50.226Z,18.73
2022-09-11T18:02:19.832Z,18.66
2022-09-11T18:04:48.063Z,18.65
2022-09-11T18:07:16.682Z,18.64
2022-09-11T18:09:46.971Z,18.62
2022-09-11T18:12:15.235Z,18.57
2022-09-11T18:14:43.889Z,18.56
2022-09-11T18:17:11.887Z,18.53
2022-09-11T18:19:39.748Z,18.49
2022-09-11T18:22:09.815Z,18.36
2022-09-11T18:24:39.751Z,18.32
2022-09-11T18:27:11.641Z,18.21
2022-09-11T18:29:40.657Z,18.15
2022-09-11T18:32:10.176Z,18.14
2022-09-11T18:34:42.368Z,18.12
2022-09-11T18:37:11.357Z,18.09
2022-09-11T18:39:39.344Z,18.10
2022-09-11T18:42:07.497Z,18.07
2022-09-11T18:44:36.824Z,18.04
2022-09-11T18:47:04.931Z,17.94
2022-09-11T18:49:34.735Z,17.96
2022-09-11T18:52:03.252Z,18.03
2022-09-11T18:54:31.537Z,18.08
2022-09-11T18:57:00.260Z,18.00
2022-09-11T18:59:28.293Z,17.98
2022-09-11T19:02:00.265Z,17.84
2022-09-11T19:04:30.487Z,17.87
2022-09-11T19:07:00.190Z,17.79
2022-09-11T19:09:29.337Z,17.78
2022-09-11T19:12:00.301Z,17.78
2022-09-11T19:14:28.456Z,17.77
2022-09-11T19:16:57.944Z,17.77
2022-09-11T19:19:25.847Z,17.75
2022-09-11T19:21:54.352Z,17.72
2022-09-11T19:24:23.621Z,17.67
2022-09-11T19:26:52.800Z,17.67
2022-09-11T19:29:21.271Z,17.65
2022-09-11T19:31:49.202Z,17.65
2022-09-11T19:34:18.400Z,17.66
2022-09-11T19:36:46.544Z,17.69
2022-09-11T19:39:14.392Z,17.70
2022-09-11T19:41:42.655Z,17.70
2022-09-11T19:44:15.208Z,17.64
2022-09-11T19:46:46.046Z,17.66
2022-09-11T19:49:15.645Z,17.60
2022-09-11T19:51:44.964Z,17.64
2022-09-11T19:54:15.346Z,17.53
2022-09-11T19:56:44.286Z,17.50
2022-09-11T19:59:14.249Z,17.55
2022-09-11T20:01:42.077Z,17.55
2022-09-11T20:04:11.396Z,17.62
2022-09-11T20:06:40.121Z,17.65
2022-09-11T20:11:58.051Z,17.56
2022-09-11T20:14:26.281Z,17.42
2022-09-11T20:16:54.533Z,17.21
2022-09-11T20:19:22.652Z,17.10
2022-09-11T20:21:50.478Z,17.09
2022-09-11T20:24:20.876Z,17.08
2022-09-11T20:26:48.998Z,17.14
2022-09-11T20:29:17.055Z,17.06
2022-09-11T20:31:48.164Z,16.91
2022-09-11T20:34:16.879Z,16.66
2022-09-11T20:36:44.702Z,16.68
2022-09-11T20:39:13.910Z,16.71
2022-09-11T20:41:43.923Z,16.80
2022-09-11T20:44:12.475Z,16.82
2022-09-11T20:46:40.506Z,16.78
2022-09-11T20:49:09.417Z,16.76
2022-09-11T20:51:38.409Z,16.83
2022-09-11T20:54:06.443Z,16.90
2022-09-11T20:56:34.620Z,16.88
2022-09-11T20:59:03.802Z,16.74
2022-09-11T21:01:33.821Z,16.66
2022-09-11T21:04:04.142Z,16.67
2022-09-11T21:06:33.536Z,16.63
2022-09-11T21:09:04.655Z,16.70
2022-09-11T21:11:32.590Z,16.74
2022-09-11T21:14:03.400Z,16.71
2022-09-11T21:16:31.843Z,16.71
2022-09-11T21:19:02.811Z,16.66
2022-09-11T21:21:31.698Z,16.66
2022-09-11T21:24:02.331Z,16.66
2022-09-11T21:26:31.320Z,16.65
2022-09-11T21:29:00.337Z,16.67
2022-09-11T21:31:30.249Z,16.67
2022-09-11T21:33:58.352Z,16.66
2022-09-11T21:36:26.890Z,16.63
2022-09-11T21:38:54.756Z,16.55
2022-09-11T21:41:22.602Z,16.54
2022-09-11T21:43:52.735Z,16.55
2022-09-11T21:46:21.099Z,16.48
2022-09-11T21:48:50.492Z,16.32
2022-09-11T21:51:20.128Z,16.27
2022-09-11T21:53:49.030Z,16.20
2022-09-11T21:56:19.285Z,16.14
2022-09-11T21:58:47.115Z,16.09
2022-09-11T22:01:15.278Z,16.05
2022-09-11T22:03:43.359Z,16.11
2022-09-11T22:06:13.366Z,16.06
2022-09-11T22:08:43.087Z,16.06
2022-09-11T22:11:12.071Z,16.13
2022-09-11T22:13:40.738Z,16.13
2022-09-11T22:16:11.992Z,16.14
2022-09-11T22:18:41.488Z,16.08
2022-09-11T22:21:10.950Z,16.00
2022-09-11T22:23:40.378Z,15.96
2022-09-11T22:26:11.394Z,15.83
2022-09-11T22:28:40.597Z,15.80
2022-09-11T22:31:09.118Z,15.85
2022-09-11T22:33:37.985Z,15.75
2022-09-11T22:36:11.490Z,15.67
2022-09-11T22:38:41.382Z,15.67
2022-09-11T22:41:09.749Z,15.51
2022-09-11T22:43:37.739Z,15.37
2022-09-11T22:46:06.483Z,15.36
2022-09-11T22:48:34.954Z,15.44
2022-09-11T22:51:03.075Z,15.55
2022-09-11T22:53:31.302Z,15.58
2022-09-11T22:56:01.361Z,15.60
2022-09-11T22:58:30.537Z,15.54
2022-09-11T23:00:59.734Z,15.55
2022-09-11T23:03:27.912Z,15.52
2022-09-11T23:06:14.050Z,15.51
2022-09-11T23:08:41.911Z,15.55
2022-09-11T23:11:11.455Z,15.62
2022-09-11T23:13:39.407Z,15.55
2022-09-11T23:16:13.511Z,15.58
2022-09-11T23:18:42.262Z,15.57
2022-09-11T23:21:10.721Z,15.49
2022-09-11T23:23:42.275Z,15.43
2022-09-11T23:26:13.366Z,15.32
2022-09-11T23:28:41.797Z,15.36
2022-09-11T23:31:14.360Z,15.39
2022-09-11T23:33:42.686Z,15.29
2022-09-11T23:36:13.285Z,15.13
2022-09-11T23:38:42.056Z,15.10
2022-09-11T23:41:12.044Z,15.08
2022-09-11T23:43:40.225Z,15.08
2022-09-11T23:46:08.450Z,15.03
2022-09-11T23:48:36.590Z,15.03
2022-09-11T23:51:05.432Z,14.99
2022-09-11T23:53:33.482Z,15.05
2022-09-11T23:56:01.601Z,14.97
2022-09-11T23:58:30.806Z,14.92
